sensor_id;sensor_type;location;lat;lon;timestamp;pressure;altitude;pressure_sealevel;temperature;humidity
23166;BME280;11751;42.700;24.170;2023-06-19T00:01:51;93953.59;;;18.99;90.95
23166;BME280;11751;42.700;24.170;2023-06-19T00:04:17;93962.31;;;18.81;90.80
23166;BME280;11751;42.700;24.170;2023-06-19T00:06:42;93956.66;;;18.92;89.70
23166;BME280;11751;42.700;24.170;2023-06-19T00:09:08;93962.94;;;18.79;91.87
23166;BME280;11751;42.700;24.170;2023-06-19T00:11:34;93960.72;;;18.78;91.61
23166;BME280;11751;42.700;24.170;2023-06-19T00:13:59;93941.97;;;18.73;91.15
23166;BME280;11751;42.700;24.170;2023-06-19T00:16:26;93961.78;;;18.61;90.52
23166;BME280;11751;42.700;24.170;2023-06-19T00:18:51;93969.81;;;18.65;89.38
23166;BME280;11751;42.700;24.170;2023-06-19T00:21:22;93956.47;;;18.56;90.50
23166;BME280;11751;42.700;24.170;2023-06-19T00:23:48;93954.38;;;18.45;91.91
23166;BME280;11751;42.700;24.170;2023-06-19T00:26:14;93949.28;;;18.32;93.23
23166;BME280;11751;42.700;24.170;2023-06-19T00:28:39;93953.13;;;18.48;91.55
23166;BME280;11751;42.700;24.170;2023-06-19T00:31:08;93940.63;;;18.30;90.63
23166;BME280;11751;42.700;24.170;2023-06-19T00:33:34;93946.81;;;18.38;89.52
23166;BME280;11751;42.700;24.170;2023-06-19T00:35:59;93941.19;;;18.49;87.79
23166;BME280;11751;42.700;24.170;2023-06-19T00:38:26;93949.72;;;18.61;88.70
23166;BME280;11751;42.700;24.170;2023-06-19T00:40:51;93942.19;;;18.65;88.62
23166;BME280;11751;42.700;24.170;2023-06-19T00:43:17;93948.09;;;18.58;88.53
23166;BME280;11751;42.700;24.170;2023-06-19T00:45:43;93942.91;;;18.66;88.12
23166;BME280;11751;42.700;24.170;2023-06-19T00:48:09;93948.59;;;18.66;87.04
23166;BME280;11751;42.700;24.170;2023-06-19T00:50:34;93943.69;;;18.78;85.98
23166;BME280;11751;42.700;24.170;2023-06-19T00:53:03;93942.91;;;18.66;83.95
23166;BME280;11751;42.700;24.170;2023-06-19T00:55:30;93954.03;;;18.73;84.11
23166;BME280;11751;42.700;24.170;2023-06-19T00:57:59;93957.00;;;18.75;84.66
23166;BME280;11751;42.700;24.170;2023-06-19T01:00:24;93960.84;;;18.80;83.06
23166;BME280;11751;42.700;24.170;2023-06-19T01:02:49;93942.97;;;18.88;83.05
23166;BME280;11751;42.700;24.170;2023-06-19T01:05:15;93950.84;;;18.90;82.57
23166;BME280;11751;42.700;24.170;2023-06-19T01:10:43;93948.91;;;19.04;82.58
23166;BME280;11751;42.700;24.170;2023-06-19T01:13:36;93949.53;;;19.02;82.31
23166;BME280;11751;42.700;24.170;2023-06-19T01:16:03;93939.53;;;19.01;82.24
23166;BME280;11751;42.700;24.170;2023-06-19T01:18:30;93941.53;;;19.10;82.15
23166;BME280;11751;42.700;24.170;2023-06-19T01:20:57;93933.22;;;19.03;82.49
23166;BME280;11751;42.700;24.170;2023-06-19T01:23:33;93934.06;;;19.05;81.90
23166;BME280;11751;42.700;24.170;2023-06-19T01:25:58;93932.22;;;18.98;83.46
23166;BME280;11751;42.700;24.170;2023-06-19T01:28:24;93935.56;;;19.06;83.65
23166;BME280;11751;42.700;24.170;2023-06-19T01:30:51;93925.94;;;18.88;85.74
23166;BME280;11751;42.700;24.170;2023-06-19T01:33:26;93934.69;;;18.70;85.82
23166;BME280;11751;42.700;24.170;2023-06-19T01:35:55;93926.88;;;18.59;87.04
23166;BME280;11751;42.700;24.170;2023-06-19T01:38:23;93935.81;;;18.32;88.31
23166;BME280;11751;42.700;24.170;2023-06-19T01:40:52;93940.91;;;18.45;87.66
23166;BME280;11751;42.700;24.170;2023-06-19T01:43:19;93939.44;;;18.44;87.09
23166;BME280;11751;42.700;24.170;2023-06-19T01:45:45;93932.69;;;18.61;87.10
23166;BME280;11751;42.700;24.170;2023-06-19T01:48:10;93923.28;;;18.47;88.43
23166;BME280;11751;42.700;24.170;2023-06-19T01:50:35;93927.59;;;18.36;89.64
23166;BME280;11751;42.700;24.170;2023-06-19T01:53:01;93922.91;;;18.41;89.31
23166;BME280;11751;42.700;24.170;2023-06-19T01:55:26;93929.38;;;18.20;90.26
23166;BME280;11751;42.700;24.170;2023-06-19T01:57:52;93931.66;;;18.12;90.24
23166;BME280;11751;42.700;24.170;2023-06-19T02:00:18;93933.59;;;17.99;92.58
23166;BME280;11751;42.700;24.170;2023-06-19T02:02:43;93928.94;;;18.03;91.68
23166;BME280;11751;42.700;24.170;2023-06-19T02:05:08;93931.75;;;18.03;90.78
23166;BME280;11751;42.700;24.170;2023-06-19T02:07:34;93931.78;;;17.82;93.08
23166;BME280;11751;42.700;24.170;2023-06-19T02:09:59;93943.13;;;17.82;93.07
23166;BME280;11751;42.700;24.170;2023-06-19T02:12:25;93935.84;;;17.58;95.30
23166;BME280;11751;42.700;24.170;2023-06-19T02:14:50;93940.34;;;17.73;94.79
23166;BME280;11751;42.700;24.170;2023-06-19T02:17:16;93953.25;;;17.64;95.71
23166;BME280;11751;42.700;24.170;2023-06-19T02:19:41;93949.59;;;17.52;96.92
23166;BME280;11751;42.700;24.170;2023-06-19T02:22:07;93963.06;;;17.42;97.18
23166;BME280;11751;42.700;24.170;2023-06-19T02:24:33;93961.81;;;17.24;98.17
23166;BME280;11751;42.700;24.170;2023-06-19T02:26:58;93964.09;;;17.16;99.66
23166;BME280;11751;42.700;24.170;2023-06-19T02:29:24;93973.72;;;16.93;100.00
23166;BME280;11751;42.700;24.170;2023-06-19T02:31:50;93972.16;;;17.11;99.67
23166;BME280;11751;42.700;24.170;2023-06-19T02:34:15;93971.91;;;17.07;100.00
23166;BME280;11751;42.700;24.170;2023-06-19T02:36:41;93980.03;;;16.82;100.00
23166;BME280;11751;42.700;24.170;2023-06-19T02:39:08;93984.66;;;16.77;100.00
23166;BME280;11751;42.700;24.170;2023-06-19T02:41:33;93976.47;;;16.81;100.00
23166;BME280;11751;42.700;24.170;2023-06-19T02:43:59;93982.28;;;16.74;100.00
23166;BME280;11751;42.700;24.170;2023-06-19T02:46:24;93984.56;;;16.66;100.00
23166;BME280;11751;42.700;24.170;2023-06-19T02:48:50;93985.59;;;16.61;100.00
23166;BME280;11751;42.700;24.170;2023-06-19T02:51:15;93985.28;;;16.66;100.00
23166;BME280;11751;42.700;24.170;2023-06-19T02:53:41;93975.19;;;16.63;100.00
23166;BME280;11751;42.700;24.170;2023-06-19T02:56:07;93983.63;;;16.73;100.00
23166;BME280;11751;42.700;24.170;2023-06-19T02:58:33;93992.41;;;16.67;100.00
23166;BME280;11751;42.700;24.170;2023-06-19T03:00:59;93991.41;;;16.63;100.00
23166;BME280;11751;42.700;24.170;2023-06-19T03:03:25;93989.28;;;16.73;100.00
23166;BME280;11751;42.700;24.170;2023-06-19T03:05:50;93982.19;;;16.62;100.00
23166;BME280;11751;42.700;24.170;2023-06-19T03:08:15;94000.50;;;16.52;100.00
23166;BME280;11751;42.700;24.170;2023-06-19T03:10:41;93993.34;;;16.60;100.00
23166;BME280;11751;42.700;24.170;2023-06-19T03:13:06;93992.69;;;16.81;100.00
23166;BME280;11751;42.700;24.170;2023-06-19T03:15:32;93997.28;;;16.86;100.00
23166;BME280;11751;42.700;24.170;2023-06-19T03:17:57;94002.94;;;16.86;100.00
23166;BME280;11751;42.700;24.170;2023-06-19T03:20:22;93999.66;;;16.80;100.00
23166;BME280;11751;42.700;24.170;2023-06-19T03:22:48;93993.75;;;16.76;100.00
23166;BME280;11751;42.700;24.170;2023-06-19T03:25:13;94002.88;;;16.55;100.00
23166;BME280;11751;42.700;24.170;2023-06-19T03:27:39;93998.22;;;16.79;100.00
23166;BME280;11751;42.700;24.170;2023-06-19T03:30:05;94010.94;;;16.40;100.00
23166;BME280;11751;42.700;24.170;2023-06-19T03:32:34;93997.41;;;16.48;100.00
23166;BME280;11751;42.700;24.170;2023-06-19T03:35:01;94009.44;;;16.48;100.00
23166;BME280;11751;42.700;24.170;2023-06-19T03:37:27;93994.06;;;16.61;100.00
23166;BME280;11751;42.700;24.170;2023-06-19T03:39:52;94011.06;;;16.51;100.00
23166;BME280;11751;42.700;24.170;2023-06-19T03:42:18;93998.06;;;16.77;100.00
23166;BME280;11751;42.700;24.170;2023-06-19T03:44:43;94009.78;;;16.92;100.00
23166;BME280;11751;42.700;24.170;2023-06-19T03:47:09;94009.22;;;17.14;100.00
23166;BME280;11751;42.700;24.170;2023-06-19T03:49:34;93989.53;;;17.56;100.00
23166;BME280;11751;42.700;24.170;2023-06-19T03:51:59;93998.00;;;17.77;100.00
23166;BME280;11751;42.700;24.170;2023-06-19T03:54:25;93998.41;;;18.04;98.62
23166;BME280;11751;42.700;24.170;2023-06-19T03:56:51;93998.91;;;18.54;96.01
23166;BME280;11751;42.700;24.170;2023-06-19T03:59:17;93996.03;;;18.97;92.54
23166;BME280;11751;42.700;24.170;2023-06-19T04:01:42;93988.91;;;19.31;90.60
23166;BME280;11751;42.700;24.170;2023-06-19T04:04:08;93992.38;;;19.52;89.06
23166;BME280;11751;42.700;24.170;2023-06-19T04:06:33;93987.41;;;19.76;88.42
23166;BME280;11751;42.700;24.170;2023-06-19T04:08:59;93981.06;;;20.00;86.38
23166;BME280;11751;42.700;24.170;2023-06-19T04:11:24;93975.00;;;20.05;85.94
23166;BME280;11751;42.700;24.170;2023-06-19T04:13:49;93981.03;;;20.48;84.36
23166;BME280;11751;42.700;24.170;2023-06-19T04:16:15;93992.28;;;20.70;82.95
23166;BME280;11751;42.700;24.170;2023-06-19T04:18:40;93988.41;;;21.02;81.89
23166;BME280;11751;42.700;24.170;2023-06-19T04:21:06;93987.03;;;21.55;78.92
23166;BME280;11751;42.700;24.170;2023-06-19T04:23:31;93992.72;;;21.55;77.63
23166;BME280;11751;42.700;24.170;2023-06-19T04:25:56;93975.84;;;21.99;77.62
23166;BME280;11751;42.700;24.170;2023-06-19T04:28:22;93972.91;;;21.57;78.46
23166;BME280;11751;42.700;24.170;2023-06-19T04:30:47;93975.59;;;22.09;76.90
23166;BME280;11751;42.700;24.170;2023-06-19T04:33:12;93968.31;;;22.61;74.39
23166;BME280;11751;42.700;24.170;2023-06-19T04:35:38;93978.34;;;22.34;74.19
23166;BME280;11751;42.700;24.170;2023-06-19T04:38:08;93992.91;;;21.32;78.02
23166;BME280;11751;42.700;24.170;2023-06-19T04:40:33;93986.78;;;21.24;80.63
23166;BME280;11751;42.700;24.170;2023-06-19T04:43:00;93974.56;;;22.16;76.86
23166;BME280;11751;42.700;24.170;2023-06-19T04:45:25;93978.03;;;22.41;76.18
23166;BME280;11751;42.700;24.170;2023-06-19T04:47:51;93974.84;;;22.93;74.92
23166;BME280;11751;42.700;24.170;2023-06-19T04:50:16;93970.41;;;22.74;74.09
23166;BME280;11751;42.700;24.170;2023-06-19T04:52:42;93977.63;;;22.06;76.84
23166;BME280;11751;42.700;24.170;2023-06-19T04:55:08;93990.56;;;22.49;75.81
23166;BME280;11751;42.700;24.170;2023-06-19T04:57:37;93964.03;;;23.20;73.75
23166;BME280;11751;42.700;24.170;2023-06-19T05:00:06;93981.75;;;22.59;76.17
23166;BME280;11751;42.700;24.170;2023-06-19T05:02:33;93986.69;;;23.16;74.08
23166;BME280;11751;42.700;24.170;2023-06-19T05:04:59;93978.44;;;23.22;74.07
23166;BME280;11751;42.700;24.170;2023-06-19T05:07:29;93978.53;;;23.39;74.04
23166;BME280;11751;42.700;24.170;2023-06-19T05:09:55;93981.75;;;23.32;72.72
23166;BME280;11751;42.700;24.170;2023-06-19T05:12:21;93974.00;;;23.19;72.93
23166;BME280;11751;42.700;24.170;2023-06-19T05:14:46;93985.72;;;23.87;71.55
23166;BME280;11751;42.700;24.170;2023-06-19T05:17:11;93977.13;;;23.87;71.18
23166;BME280;11751;42.700;24.170;2023-06-19T05:19:37;93970.13;;;23.90;71.16
23166;BME280;11751;42.700;24.170;2023-06-19T05:22:02;93975.38;;;23.95;70.56
23166;BME280;11751;42.700;24.170;2023-06-19T05:24:28;93977.75;;;24.33;69.46
23166;BME280;11751;42.700;24.170;2023-06-19T05:26:53;93976.03;;;24.59;68.57
23166;BME280;11751;42.700;24.170;2023-06-19T05:29:18;93970.88;;;24.73;67.90
23166;BME280;11751;42.700;24.170;2023-06-19T05:31:44;93982.81;;;24.50;67.86
23166;BME280;11751;42.700;24.170;2023-06-19T05:34:09;93978.16;;;24.76;68.37
23166;BME280;11751;42.700;24.170;2023-06-19T05:36:34;93979.38;;;24.89;66.82
23166;BME280;11751;42.700;24.170;2023-06-19T05:39:00;93981.84;;;24.61;67.87
23166;BME280;11751;42.700;24.170;2023-06-19T05:41:25;93988.88;;;24.58;67.35
23166;BME280;11751;42.700;24.170;2023-06-19T05:43:51;93987.09;;;24.67;66.70
23166;BME280;11751;42.700;24.170;2023-06-19T05:46:16;93987.75;;;25.17;65.28
23166;BME280;11751;42.700;24.170;2023-06-19T05:48:41;93990.66;;;25.37;64.75
23166;BME280;11751;42.700;24.170;2023-06-19T05:51:07;93984.53;;;25.27;63.95
23166;BME280;11751;42.700;24.170;2023-06-19T05:53:32;93992.47;;;25.46;64.15
23166;BME280;11751;42.700;24.170;2023-06-19T05:55:57;93991.06;;;25.47;63.21
23166;BME280;11751;42.700;24.170;2023-06-19T05:58:23;93990.75;;;25.39;62.78
23166;BME280;11751;42.700;24.170;2023-06-19T06:00:51;93996.41;;;25.37;63.10
23166;BME280;11751;42.700;24.170;2023-06-19T06:03:25;93995.94;;;25.62;64.32
23166;BME280;11751;42.700;24.170;2023-06-19T06:05:51;94005.59;;;25.70;62.38
23166;BME280;11751;42.700;24.170;2023-06-19T06:08:16;93998.47;;;25.91;62.22
23166;BME280;11751;42.700;24.170;2023-06-19T06:10:42;94004.97;;;26.10;61.81
23166;BME280;11751;42.700;24.170;2023-06-19T06:13:07;94002.41;;;25.99;61.22
23166;BME280;11751;42.700;24.170;2023-06-19T06:15:33;94004.09;;;25.87;63.24
23166;BME280;11751;42.700;24.170;2023-06-19T06:17:58;94006.38;;;25.90;63.03
23166;BME280;11751;42.700;24.170;2023-06-19T06:20:24;93999.38;;;25.95;63.57
23166;BME280;11751;42.700;24.170;2023-06-19T06:22:49;94005.69;;;25.55;63.26
23166;BME280;11751;42.700;24.170;2023-06-19T06:25:15;94013.09;;;25.60;63.39
23166;BME280;11751;42.700;24.170;2023-06-19T06:27:41;94003.22;;;25.65;63.44
23166;BME280;11751;42.700;24.170;2023-06-19T06:30:06;93998.78;;;25.25;65.13
23166;BME280;11751;42.700;24.170;2023-06-19T06:32:32;94001.16;;;25.30;64.57
23166;BME280;11751;42.700;24.170;2023-06-19T06:34:59;93999.75;;;25.49;63.69
23166;BME280;11751;42.700;24.170;2023-06-19T06:37:24;94003.47;;;25.16;65.28
23166;BME280;11751;42.700;24.170;2023-06-19T06:39:50;94005.84;;;25.22;64.25
23166;BME280;11751;42.700;24.170;2023-06-19T06:42:16;94006.63;;;25.42;63.46
23166;BME280;11751;42.700;24.170;2023-06-19T06:44:42;94006.00;;;25.26;64.13
23166;BME280;11751;42.700;24.170;2023-06-19T06:47:08;94009.06;;;25.12;64.25
23166;BME280;11751;42.700;24.170;2023-06-19T06:49:33;94002.72;;;24.99;64.73
23166;BME280;11751;42.700;24.170;2023-06-19T06:51:58;94007.00;;;25.52;64.59
23166;BME280;11751;42.700;24.170;2023-06-19T06:54:24;94005.09;;;25.39;65.03
23166;BME280;11751;42.700;24.170;2023-06-19T06:56:51;94009.75;;;25.48;64.10
23166;BME280;11751;42.700;24.170;2023-06-19T06:59:21;94007.19;;;25.56;63.24
23166;BME280;11751;42.700;24.170;2023-06-19T07:01:46;94013.97;;;25.64;64.51
23166;BME280;11751;42.700;24.170;2023-06-19T07:04:11;93999.09;;;25.33;59.94
23166;BME280;11751;42.700;24.170;2023-06-19T07:06:37;93999.69;;;25.29;57.02
23166;BME280;11751;42.700;24.170;2023-06-19T07:09:02;94005.22;;;25.43;57.09
23166;BME280;11751;42.700;24.170;2023-06-19T07:11:28;94008.09;;;25.43;56.16
23166;BME280;11751;42.700;24.170;2023-06-19T07:13:53;94008.94;;;25.82;55.94
23166;BME280;11751;42.700;24.170;2023-06-19T07:16:19;94001.31;;;25.71;56.13
23166;BME280;11751;42.700;24.170;2023-06-19T07:18:44;94003.94;;;25.83;56.58
23166;BME280;11751;42.700;24.170;2023-06-19T07:21:14;94001.72;;;26.00;54.23
23166;BME280;11751;42.700;24.170;2023-06-19T07:23:41;94011.44;;;25.92;54.19
23166;BME280;11751;42.700;24.170;2023-06-19T07:26:08;94010.41;;;25.83;55.42
23166;BME280;11751;42.700;24.170;2023-06-19T07:28:34;94023.06;;;25.96;53.60
23166;BME280;11751;42.700;24.170;2023-06-19T07:31:02;94015.66;;;26.27;51.88
23166;BME280;11751;42.700;24.170;2023-06-19T07:33:27;94017.78;;;25.71;53.87
23166;BME280;11751;42.700;24.170;2023-06-19T07:35:53;94007.47;;;26.00;54.25
23166;BME280;11751;42.700;24.170;2023-06-19T07:38:18;94013.81;;;26.16;52.01
23166;BME280;11751;42.700;24.170;2023-06-19T07:40:44;94010.84;;;26.34;51.33
23166;BME280;11751;42.700;24.170;2023-06-19T07:43:09;94019.72;;;26.40;52.80
23166;BME280;11751;42.700;24.170;2023-06-19T07:45:34;94026.00;;;26.56;49.72
23166;BME280;11751;42.700;24.170;2023-06-19T07:48:00;94025.34;;;26.38;51.42
23166;BME280;11751;42.700;24.170;2023-06-19T07:50:25;94018.72;;;26.33;52.48
23166;BME280;11751;42.700;24.170;2023-06-19T07:52:50;94025.00;;;26.08;51.17
23166;BME280;11751;42.700;24.170;2023-06-19T07:55:16;94023.53;;;26.46;51.49
23166;BME280;11751;42.700;24.170;2023-06-19T07:57:41;94023.53;;;26.07;52.88
23166;BME280;11751;42.700;24.170;2023-06-19T08:00:07;94028.88;;;25.61;53.28
23166;BME280;11751;42.700;24.170;2023-06-19T08:02:39;94026.03;;;25.98;54.13
23166;BME280;11751;42.700;24.170;2023-06-19T08:05:07;94034.47;;;25.94;55.56
23166;BME280;11751;42.700;24.170;2023-06-19T08:07:34;94028.25;;;26.18;52.41
23166;BME280;11751;42.700;24.170;2023-06-19T08:09:59;94030.56;;;25.85;52.86
23166;BME280;11751;42.700;24.170;2023-06-19T08:12:24;94042.50;;;26.16;53.28
23166;BME280;11751;42.700;24.170;2023-06-19T08:14:50;94031.19;;;26.40;51.28
23166;BME280;11751;42.700;24.170;2023-06-19T08:17:15;94032.28;;;26.50;49.80
23166;BME280;11751;42.700;24.170;2023-06-19T08:19:41;94028.00;;;26.51;50.86
23166;BME280;11751;42.700;24.170;2023-06-19T08:22:08;94030.44;;;26.20;51.35
23166;BME280;11751;42.700;24.170;2023-06-19T08:24:33;94014.97;;;26.48;53.84
23166;BME280;11751;42.700;24.170;2023-06-19T08:27:00;94031.75;;;26.36;51.34
23166;BME280;11751;42.700;24.170;2023-06-19T08:29:26;94017.91;;;26.50;52.52
23166;BME280;11751;42.700;24.170;2023-06-19T08:31:51;94026.66;;;26.35;50.45
23166;BME280;11751;42.700;24.170;2023-06-19T08:34:17;94017.00;;;26.65;50.35
23166;BME280;11751;42.700;24.170;2023-06-19T08:36:42;94018.13;;;26.97;49.73
23166;BME280;11751;42.700;24.170;2023-06-19T08:39:07;94010.22;;;27.19;49.76
23166;BME280;11751;42.700;24.170;2023-06-19T08:41:34;94014.13;;;27.06;49.71
23166;BME280;11751;42.700;24.170;2023-06-19T08:44:00;94003.66;;;27.38;47.61
23166;BME280;11751;42.700;24.170;2023-06-19T08:46:25;94006.47;;;27.36;46.76
23166;BME280;11751;42.700;24.170;2023-06-19T08:48:51;94008.06;;;27.41;49.81
23166;BME280;11751;42.700;24.170;2023-06-19T08:51:16;94012.06;;;27.76;49.13
23166;BME280;11751;42.700;24.170;2023-06-19T08:53:55;93998.66;;;27.85;47.04
23166;BME280;11751;42.700;24.170;2023-06-19T08:56:21;94007.72;;;27.99;47.93
23166;BME280;11751;42.700;24.170;2023-06-19T08:58:46;94009.38;;;28.06;47.27
23166;BME280;11751;42.700;24.170;2023-06-19T09:01:16;93994.34;;;28.09;45.57
23166;BME280;11751;42.700;24.170;2023-06-19T09:03:41;94004.91;;;28.24;46.65
23166;BME280;11751;42.700;24.170;2023-06-19T09:06:07;94001.72;;;27.68;45.91
23166;BME280;11751;42.700;24.170;2023-06-19T09:08:34;94014.59;;;27.65;45.48
23166;BME280;11751;42.700;24.170;2023-06-19T09:11:01;94003.94;;;27.92;45.75
23166;BME280;11751;42.700;24.170;2023-06-19T09:13:28;94023.84;;;27.84;45.24
23166;BME280;11751;42.700;24.170;2023-06-19T09:16:04;94023.06;;;28.07;44.62
23166;BME280;11751;42.700;24.170;2023-06-19T09:18:31;94023.78;;;27.38;45.11
23166;BME280;11751;42.700;24.170;2023-06-19T09:20:57;94026.41;;;27.30;45.81
23166;BME280;11751;42.700;24.170;2023-06-19T09:23:23;94021.25;;;27.26;47.12
23166;BME280;11751;42.700;24.170;2023-06-19T09:25:51;94026.50;;;27.55;45.87
23166;BME280;11751;42.700;24.170;2023-06-19T09:30:57;94021.56;;;28.04;44.75
23166;BME280;11751;42.700;24.170;2023-06-19T09:33:25;94022.38;;;27.62;44.80
23166;BME280;11751;42.700;24.170;2023-06-19T09:35:50;94015.56;;;27.07;47.06
23166;BME280;11751;42.700;24.170;2023-06-19T09:38:17;94020.72;;;26.48;46.67
23166;BME280;11751;42.700;24.170;2023-06-19T09:40:45;94020.25;;;26.56;49.65
23166;BME280;11751;42.700;24.170;2023-06-19T09:43:11;94017.00;;;26.65;48.23
23166;BME280;11751;42.700;24.170;2023-06-19T09:45:39;94009.72;;;26.83;45.87
23166;BME280;11751;42.700;24.170;2023-06-19T09:48:05;94019.38;;;26.71;46.43
23166;BME280;11751;42.700;24.170;2023-06-19T09:50:39;94021.72;;;26.76;46.54
23166;BME280;11751;42.700;24.170;2023-06-19T09:53:05;94017.22;;;26.92;46.42
23166;BME280;11751;42.700;24.170;2023-06-19T09:55:31;94014.91;;;26.87;45.81
23166;BME280;11751;42.700;24.170;2023-06-19T09:57:58;94013.66;;;26.51;45.31
23166;BME280;11751;42.700;24.170;2023-06-19T10:00:24;94014.13;;;27.06;46.92
23166;BME280;11751;42.700;24.170;2023-06-19T10:02:56;94023.44;;;26.85;45.39
23166;BME280;11751;42.700;24.170;2023-06-19T10:05:30;94012.22;;;26.72;46.54
23166;BME280;11751;42.700;24.170;2023-06-19T10:07:55;93998.16;;;26.60;47.22
23166;BME280;11751;42.700;24.170;2023-06-19T10:10:26;94014.69;;;26.40;47.21
23166;BME280;11751;42.700;24.170;2023-06-19T10:12:58;94013.97;;;26.40;46.35
23166;BME280;11751;42.700;24.170;2023-06-19T10:15:28;94007.66;;;26.65;47.90
23166;BME280;11751;42.700;24.170;2023-06-19T10:18:05;94007.28;;;26.74;47.73
23166;BME280;11751;42.700;24.170;2023-06-19T10:20:37;94008.94;;;26.81;47.92
23166;BME280;11751;42.700;24.170;2023-06-19T10:23:15;94016.63;;;26.75;46.93
23166;BME280;11751;42.700;24.170;2023-06-19T10:25:44;94010.81;;;26.73;46.19
23166;BME280;11751;42.700;24.170;2023-06-19T10:28:24;94008.56;;;26.30;48.06
23166;BME280;11751;42.700;24.170;2023-06-19T10:31:02;94006.50;;;25.57;50.11
23166;BME280;11751;42.700;24.170;2023-06-19T10:33:33;94004.47;;;25.60;52.31
23166;BME280;11751;42.700;24.170;2023-06-19T10:36:00;94007.63;;;26.04;52.05
23166;BME280;11751;42.700;24.170;2023-06-19T10:39:06;94007.31;;;26.55;50.36
23166;BME280;11751;42.700;24.170;2023-06-19T10:41:32;94007.38;;;26.37;49.50
23166;BME280;11751;42.700;24.170;2023-06-19T10:44:04;94015.28;;;26.56;46.87
23166;BME280;11751;42.700;24.170;2023-06-19T10:46:34;94011.53;;;26.73;45.31
23166;BME280;11751;42.700;24.170;2023-06-19T10:49:05;94008.38;;;27.06;45.59
23166;BME280;11751;42.700;24.170;2023-06-19T10:51:34;94010.28;;;27.21;46.84
23166;BME280;11751;42.700;24.170;2023-06-19T10:54:00;94008.06;;;27.41;47.29
23166;BME280;11751;42.700;24.170;2023-06-19T10:56:25;94011.00;;;27.00;47.03
23166;BME280;11751;42.700;24.170;2023-06-19T10:59:01;94006.28;;;26.87;48.00
23166;BME280;11751;42.700;24.170;2023-06-19T11:01:41;94013.00;;;26.74;49.60
23166;BME280;11751;42.700;24.170;2023-06-19T11:04:08;94011.44;;;26.30;50.96
23166;BME280;11751;42.700;24.170;2023-06-19T11:06:34;94024.66;;;26.39;50.92
23166;BME280;11751;42.700;24.170;2023-06-19T11:09:00;94018.06;;;26.15;50.04
23166;BME280;11751;42.700;24.170;2023-06-19T11:11:43;94003.78;;;26.56;48.01
23166;BME280;11751;42.700;24.170;2023-06-19T11:14:10;94009.50;;;26.37;50.67
23166;BME280;11751;42.700;24.170;2023-06-19T11:16:40;94007.63;;;26.43;47.68
23166;BME280;11751;42.700;24.170;2023-06-19T11:19:07;94011.13;;;26.61;49.26
23166;BME280;11751;42.700;24.170;2023-06-19T11:21:35;94014.25;;;26.48;51.09
23166;BME280;11751;42.700;24.170;2023-06-19T11:24:04;94017.84;;;26.29;51.17
23166;BME280;11751;42.700;24.170;2023-06-19T11:26:37;93999.94;;;26.30;49.41
23166;BME280;11751;42.700;24.170;2023-06-19T11:29:14;93998.84;;;26.80;49.21
23166;BME280;11751;42.700;24.170;2023-06-19T11:31:39;93992.56;;;26.64;44.94
23166;BME280;11751;42.700;24.170;2023-06-19T11:34:05;94000.25;;;26.79;45.84
23166;BME280;11751;42.700;24.170;2023-06-19T11:36:31;94000.97;;;27.01;43.05
23166;BME280;11751;42.700;24.170;2023-06-19T11:38:56;93993.25;;;26.84;41.84
23166;BME280;11751;42.700;24.170;2023-06-19T11:41:26;93995.22;;;26.58;42.85
23166;BME280;11751;42.700;24.170;2023-06-19T11:43:58;94003.53;;;26.70;44.46
23166;BME280;11751;42.700;24.170;2023-06-19T11:46:29;93995.78;;;26.74;42.41
23166;BME280;11751;42.700;24.170;2023-06-19T11:49:06;93997.38;;;26.79;42.87
23166;BME280;11751;42.700;24.170;2023-06-19T11:51:32;93998.84;;;26.80;44.95
23166;BME280;11751;42.700;24.170;2023-06-19T11:53:57;93988.75;;;27.00;43.98
23166;BME280;11751;42.700;24.170;2023-06-19T12:11:04;93980.03;;;28.11;37.62
23166;BME280;11751;42.700;24.170;2023-06-19T12:13:33;93971.50;;;27.67;41.49
23166;BME280;11751;42.700;24.170;2023-06-19T12:15:58;93973.94;;;27.08;39.15
23166;BME280;11751;42.700;24.170;2023-06-19T12:18:24;93965.97;;;27.06;41.66
23166;BME280;11751;42.700;24.170;2023-06-19T12:20:49;93966.59;;;27.03;39.75
23166;BME280;11751;42.700;24.170;2023-06-19T12:23:15;93962.63;;;27.14;40.82
23166;BME280;11751;42.700;24.170;2023-06-19T12:25:40;93961.84;;;26.69;41.18
23166;BME280;11751;42.700;24.170;2023-06-19T12:28:05;93965.72;;;26.77;40.64
23166;BME280;11751;42.700;24.170;2023-06-19T12:30:33;93963.72;;;27.03;39.88
23166;BME280;11751;42.700;24.170;2023-06-19T12:32:59;93959.56;;;27.08;36.16
23166;BME280;11751;42.700;24.170;2023-06-19T12:35:24;93961.25;;;27.15;36.82
23166;BME280;11751;42.700;24.170;2023-06-19T12:37:51;93976.53;;;27.00;39.79
23166;BME280;11751;42.700;24.170;2023-06-19T12:40:17;93980.44;;;27.08;42.13
23166;BME280;11751;42.700;24.170;2023-06-19T12:42:43;93972.72;;;26.72;40.32
23166;BME280;11751;42.700;24.170;2023-06-19T12:45:09;93971.16;;;26.69;40.79
23166;BME280;11751;42.700;24.170;2023-06-19T12:47:35;93975.19;;;26.60;41.78
23166;BME280;11751;42.700;24.170;2023-06-19T12:50:01;93969.78;;;26.91;40.73
23166;BME280;11751;42.700;24.170;2023-06-19T12:52:26;93970.47;;;27.11;41.58
23166;BME280;11751;42.700;24.170;2023-06-19T12:54:52;93977.41;;;26.83;41.85
23166;BME280;11751;42.700;24.170;2023-06-19T12:57:17;93982.13;;;26.53;43.49
23166;BME280;11751;42.700;24.170;2023-06-19T12:59:43;93966.59;;;26.82;41.81
23166;BME280;11751;42.700;24.170;2023-06-19T13:02:08;93976.81;;;26.65;42.79
23166;BME280;11751;42.700;24.170;2023-06-19T13:04:33;93991.13;;;26.24;42.43
23166;BME280;11751;42.700;24.170;2023-06-19T13:06:59;93986.06;;;26.03;43.23